Terminal Aerodrome Forecast
Issued by NWS Twin Cities, MN

Home | Current Version | Previous Version | Text Only | Print | Product List | Glossary Off
Versions: 1 2 3 4 5 6 7 8 9 10 11 12 13 14 15 16 17 18

000
FTUS43 KMPX 251135
TAFEAU
TAF
KEAU 251135Z 2512/2612 05011KT P6SM OVC020
     FM251800 03009KT P6SM SCT025 BKN050
     FM252200 VRB03KT P6SM SCT050
     FM260700 18006KT P6SM SCT030 BKN050=

USA.gov is the U.S. government's official web portal to all federal, state and local government web resources and services.